sensor_id;sensor_type;location;lat;lon;timestamp;P1;durP1;ratioP1;P2;durP2;ratioP2
51836;SDS011;38941;53.254;6.600;2024-03-07T00:01:33;18.00;;;9.80;;
51836;SDS011;38941;53.254;6.600;2024-03-07T00:03:33;16.73;;;10.30;;
51836;SDS011;38941;53.254;6.600;2024-03-07T00:05:34;16.70;;;9.00;;
51836;SDS011;38941;53.254;6.600;2024-03-07T00:07:35;15.32;;;9.35;;
51836;SDS011;38941;53.254;6.600;2024-03-07T00:09:36;18.92;;;9.23;;
51836;SDS011;38941;53.254;6.600;2024-03-07T00:11:38;19.17;;;9.35;;
51836;SDS011;38941;53.254;6.600;2024-03-07T00:13:39;17.92;;;9.70;;
51836;SDS011;38941;53.254;6.600;2024-03-07T00:15:40;17.63;;;10.07;;
51836;SDS011;38941;53.254;6.600;2024-03-07T00:17:41;18.77;;;9.48;;
51836;SDS011;38941;53.254;6.600;2024-03-07T00:19:43;22.80;;;10.23;;
51836;SDS011;38941;53.254;6.600;2024-03-07T00:21:43;16.42;;;8.80;;
51836;SDS011;38941;53.254;6.600;2024-03-07T00:23:44;18.05;;;8.52;;
51836;SDS011;38941;53.254;6.600;2024-03-07T00:25:46;19.30;;;9.77;;
51836;SDS011;38941;53.254;6.600;2024-03-07T00:27:51;18.45;;;9.70;;
51836;SDS011;38941;53.254;6.600;2024-03-07T00:29:53;19.70;;;10.13;;
51836;SDS011;38941;53.254;6.600;2024-03-07T00:31:54;18.05;;;9.38;;
51836;SDS011;38941;53.254;6.600;2024-03-07T00:33:56;16.08;;;8.82;;
51836;SDS011;38941;53.254;6.600;2024-03-07T00:35:57;19.65;;;10.00;;
51836;SDS011;38941;53.254;6.600;2024-03-07T00:37:58;20.25;;;9.95;;
51836;SDS011;38941;53.254;6.600;2024-03-07T00:39:58;18.40;;;8.45;;
51836;SDS011;38941;53.254;6.600;2024-03-07T00:41:59;17.02;;;8.95;;
51836;SDS011;38941;53.254;6.600;2024-03-07T00:44:00;15.43;;;9.45;;
51836;SDS011;38941;53.254;6.600;2024-03-07T00:46:01;17.23;;;8.48;;
51836;SDS011;38941;53.254;6.600;2024-03-07T00:48:01;16.05;;;9.00;;
51836;SDS011;38941;53.254;6.600;2024-03-07T00:50:03;16.83;;;9.18;;
51836;SDS011;38941;53.254;6.600;2024-03-07T00:52:06;18.92;;;10.00;;
51836;SDS011;38941;53.254;6.600;2024-03-07T00:54:06;16.63;;;9.20;;
51836;SDS011;38941;53.254;6.600;2024-03-07T00:56:08;16.38;;;8.65;;
51836;SDS011;38941;53.254;6.600;2024-03-07T00:58:09;18.67;;;9.75;;
51836;SDS011;38941;53.254;6.600;2024-03-07T01:00:10;16.27;;;9.48;;
51836;SDS011;38941;53.254;6.600;2024-03-07T01:02:14;17.15;;;8.00;;
51836;SDS011;38941;53.254;6.600;2024-03-07T01:04:17;15.70;;;8.23;;
51836;SDS011;38941;53.254;6.600;2024-03-07T01:06:18;16.02;;;8.50;;
51836;SDS011;38941;53.254;6.600;2024-03-07T01:08:20;15.95;;;8.10;;
51836;SDS011;38941;53.254;6.600;2024-03-07T01:10:21;21.95;;;8.70;;
51836;SDS011;38941;53.254;6.600;2024-03-07T01:12:22;14.68;;;8.82;;
51836;SDS011;38941;53.254;6.600;2024-03-07T01:14:30;13.93;;;8.30;;
51836;SDS011;38941;53.254;6.600;2024-03-07T01:16:31;18.20;;;8.27;;
51836;SDS011;38941;53.254;6.600;2024-03-07T01:18:32;15.00;;;8.55;;
51836;SDS011;38941;53.254;6.600;2024-03-07T01:20:33;16.25;;;8.82;;
51836;SDS011;38941;53.254;6.600;2024-03-07T01:22:34;16.30;;;8.75;;
51836;SDS011;38941;53.254;6.600;2024-03-07T01:24:35;15.32;;;8.30;;
51836;SDS011;38941;53.254;6.600;2024-03-07T01:26:35;18.30;;;8.57;;
51836;SDS011;38941;53.254;6.600;2024-03-07T01:28:36;16.45;;;9.25;;
51836;SDS011;38941;53.254;6.600;2024-03-07T01:30:45;15.63;;;8.45;;
51836;SDS011;38941;53.254;6.600;2024-03-07T01:32:46;12.98;;;7.97;;
51836;SDS011;38941;53.254;6.600;2024-03-07T01:34:47;16.73;;;8.73;;
51836;SDS011;38941;53.254;6.600;2024-03-07T01:36:48;15.23;;;8.68;;
51836;SDS011;38941;53.254;6.600;2024-03-07T01:38:49;17.15;;;9.88;;
51836;SDS011;38941;53.254;6.600;2024-03-07T01:40:51;14.95;;;8.15;;
51836;SDS011;38941;53.254;6.600;2024-03-07T01:42:52;17.10;;;9.20;;
51836;SDS011;38941;53.254;6.600;2024-03-07T01:44:53;16.33;;;8.55;;
51836;SDS011;38941;53.254;6.600;2024-03-07T01:46:53;17.58;;;8.40;;
51836;SDS011;38941;53.254;6.600;2024-03-07T01:48:54;17.45;;;8.73;;
51836;SDS011;38941;53.254;6.600;2024-03-07T01:50:57;16.42;;;8.80;;
51836;SDS011;38941;53.254;6.600;2024-03-07T01:53:00;17.80;;;10.15;;
51836;SDS011;38941;53.254;6.600;2024-03-07T01:55:02;15.73;;;7.72;;
51836;SDS011;38941;53.254;6.600;2024-03-07T01:57:04;14.75;;;8.02;;
51836;SDS011;38941;53.254;6.600;2024-03-07T01:59:06;18.73;;;10.38;;
51836;SDS011;38941;53.254;6.600;2024-03-07T02:01:08;16.15;;;9.10;;
51836;SDS011;38941;53.254;6.600;2024-03-07T02:03:09;14.60;;;8.57;;
51836;SDS011;38941;53.254;6.600;2024-03-07T02:05:10;15.15;;;8.32;;
51836;SDS011;38941;53.254;6.600;2024-03-07T02:07:12;16.40;;;8.57;;
51836;SDS011;38941;53.254;6.600;2024-03-07T02:09:13;16.95;;;8.63;;
51836;SDS011;38941;53.254;6.600;2024-03-07T02:11:15;18.17;;;9.18;;
51836;SDS011;38941;53.254;6.600;2024-03-07T02:13:16;20.13;;;8.82;;
51836;SDS011;38941;53.254;6.600;2024-03-07T02:15:17;15.77;;;8.15;;
51836;SDS011;38941;53.254;6.600;2024-03-07T02:17:18;16.42;;;8.68;;
51836;SDS011;38941;53.254;6.600;2024-03-07T02:21:25;15.45;;;8.48;;
51836;SDS011;38941;53.254;6.600;2024-03-07T02:23:26;17.05;;;8.57;;
51836;SDS011;38941;53.254;6.600;2024-03-07T02:25:28;17.08;;;8.95;;
51836;SDS011;38941;53.254;6.600;2024-03-07T02:27:32;13.23;;;7.43;;
51836;SDS011;38941;53.254;6.600;2024-03-07T02:29:33;17.35;;;9.30;;
51836;SDS011;38941;53.254;6.600;2024-03-07T02:31:35;20.35;;;8.48;;
51836;SDS011;38941;53.254;6.600;2024-03-07T02:33:36;16.65;;;8.80;;
51836;SDS011;38941;53.254;6.600;2024-03-07T02:35:38;14.93;;;8.23;;
51836;SDS011;38941;53.254;6.600;2024-03-07T02:37:40;18.80;;;9.00;;
51836;SDS011;38941;53.254;6.600;2024-03-07T02:39:40;15.10;;;7.65;;
51836;SDS011;38941;53.254;6.600;2024-03-07T02:41:43;19.30;;;9.25;;
51836;SDS011;38941;53.254;6.600;2024-03-07T02:43:44;17.73;;;8.70;;
51836;SDS011;38941;53.254;6.600;2024-03-07T02:45:45;16.58;;;8.93;;
51836;SDS011;38941;53.254;6.600;2024-03-07T02:47:47;14.77;;;7.82;;
51836;SDS011;38941;53.254;6.600;2024-03-07T02:49:48;17.95;;;8.52;;
51836;SDS011;38941;53.254;6.600;2024-03-07T02:51:49;15.75;;;7.95;;
51836;SDS011;38941;53.254;6.600;2024-03-07T02:53:51;14.20;;;7.75;;
51836;SDS011;38941;53.254;6.600;2024-03-07T02:55:52;13.32;;;8.05;;
51836;SDS011;38941;53.254;6.600;2024-03-07T02:57:54;15.95;;;8.68;;
51836;SDS011;38941;53.254;6.600;2024-03-07T02:59:57;15.43;;;8.10;;
51836;SDS011;38941;53.254;6.600;2024-03-07T03:01:58;16.15;;;8.45;;
51836;SDS011;38941;53.254;6.600;2024-03-07T03:03:59;15.25;;;8.30;;
51836;SDS011;38941;53.254;6.600;2024-03-07T03:05:59;14.02;;;8.13;;
51836;SDS011;38941;53.254;6.600;2024-03-07T03:08:00;15.27;;;8.10;;
51836;SDS011;38941;53.254;6.600;2024-03-07T03:10:01;17.55;;;8.90;;
51836;SDS011;38941;53.254;6.600;2024-03-07T03:12:11;23.63;;;8.88;;
51836;SDS011;38941;53.254;6.600;2024-03-07T03:14:13;16.25;;;8.18;;
51836;SDS011;38941;53.254;6.600;2024-03-07T03:16:14;14.77;;;8.45;;
51836;SDS011;38941;53.254;6.600;2024-03-07T03:18:15;17.25;;;7.75;;
51836;SDS011;38941;53.254;6.600;2024-03-07T03:20:18;14.45;;;8.15;;
51836;SDS011;38941;53.254;6.600;2024-03-07T03:22:25;17.38;;;8.38;;
51836;SDS011;38941;53.254;6.600;2024-03-07T03:24:28;16.27;;;8.20;;
51836;SDS011;38941;53.254;6.600;2024-03-07T03:26:28;16.55;;;8.52;;
51836;SDS011;38941;53.254;6.600;2024-03-07T03:28:31;15.43;;;7.78;;
51836;SDS011;38941;53.254;6.600;2024-03-07T03:30:33;18.52;;;8.10;;
51836;SDS011;38941;53.254;6.600;2024-03-07T03:32:34;16.65;;;8.38;;
51836;SDS011;38941;53.254;6.600;2024-03-07T03:34:36;18.95;;;8.70;;
51836;SDS011;38941;53.254;6.600;2024-03-07T03:36:38;14.25;;;8.13;;
51836;SDS011;38941;53.254;6.600;2024-03-07T03:38:40;15.15;;;7.97;;
51836;SDS011;38941;53.254;6.600;2024-03-07T03:40:41;14.52;;;7.93;;
51836;SDS011;38941;53.254;6.600;2024-03-07T03:42:42;16.58;;;7.18;;
51836;SDS011;38941;53.254;6.600;2024-03-07T03:44:43;19.25;;;9.38;;
51836;SDS011;38941;53.254;6.600;2024-03-07T03:46:45;17.55;;;9.50;;
51836;SDS011;38941;53.254;6.600;2024-03-07T03:48:47;14.75;;;8.07;;
51836;SDS011;38941;53.254;6.600;2024-03-07T03:50:47;16.38;;;8.70;;
51836;SDS011;38941;53.254;6.600;2024-03-07T03:52:48;14.20;;;7.78;;
51836;SDS011;38941;53.254;6.600;2024-03-07T03:54:51;16.13;;;8.23;;
51836;SDS011;38941;53.254;6.600;2024-03-07T03:56:53;14.93;;;8.35;;
51836;SDS011;38941;53.254;6.600;2024-03-07T03:58:53;15.32;;;8.23;;
51836;SDS011;38941;53.254;6.600;2024-03-07T04:00:54;14.05;;;8.45;;
51836;SDS011;38941;53.254;6.600;2024-03-07T04:02:55;16.77;;;9.15;;
51836;SDS011;38941;53.254;6.600;2024-03-07T04:04:56;19.67;;;8.93;;
51836;SDS011;38941;53.254;6.600;2024-03-07T04:06:56;16.63;;;8.77;;
51836;SDS011;38941;53.254;6.600;2024-03-07T04:08:57;15.70;;;8.02;;
51836;SDS011;38941;53.254;6.600;2024-03-07T04:11:00;16.65;;;8.85;;
51836;SDS011;38941;53.254;6.600;2024-03-07T04:13:00;18.05;;;8.75;;
51836;SDS011;38941;53.254;6.600;2024-03-07T04:15:01;15.15;;;8.15;;
51836;SDS011;38941;53.254;6.600;2024-03-07T04:17:04;14.85;;;8.45;;
51836;SDS011;38941;53.254;6.600;2024-03-07T04:19:07;16.63;;;8.90;;
51836;SDS011;38941;53.254;6.600;2024-03-07T04:21:09;15.65;;;9.00;;
51836;SDS011;38941;53.254;6.600;2024-03-07T04:23:10;13.82;;;7.80;;
51836;SDS011;38941;53.254;6.600;2024-03-07T04:25:10;16.08;;;9.20;;
51836;SDS011;38941;53.254;6.600;2024-03-07T04:27:13;15.50;;;9.20;;
51836;SDS011;38941;53.254;6.600;2024-03-07T04:29:14;15.88;;;8.48;;
51836;SDS011;38941;53.254;6.600;2024-03-07T04:31:14;17.77;;;9.52;;
51836;SDS011;38941;53.254;6.600;2024-03-07T04:33:16;16.00;;;9.07;;
51836;SDS011;38941;53.254;6.600;2024-03-07T04:35:19;15.75;;;8.85;;
51836;SDS011;38941;53.254;6.600;2024-03-07T04:37:20;16.15;;;9.07;;
51836;SDS011;38941;53.254;6.600;2024-03-07T04:39:25;18.55;;;10.13;;
51836;SDS011;38941;53.254;6.600;2024-03-07T04:41:33;17.15;;;9.05;;
51836;SDS011;38941;53.254;6.600;2024-03-07T04:43:37;16.13;;;9.63;;
51836;SDS011;38941;53.254;6.600;2024-03-07T04:45:37;15.93;;;8.30;;
51836;SDS011;38941;53.254;6.600;2024-03-07T04:47:40;17.40;;;8.70;;
51836;SDS011;38941;53.254;6.600;2024-03-07T04:49:45;15.48;;;8.02;;
51836;SDS011;38941;53.254;6.600;2024-03-07T04:51:45;19.73;;;9.27;;
51836;SDS011;38941;53.254;6.600;2024-03-07T04:53:46;16.33;;;9.10;;
51836;SDS011;38941;53.254;6.600;2024-03-07T04:55:47;18.08;;;8.95;;
51836;SDS011;38941;53.254;6.600;2024-03-07T04:59:58;17.40;;;9.50;;
51836;SDS011;38941;53.254;6.600;2024-03-07T05:01:58;19.38;;;10.07;;
51836;SDS011;38941;53.254;6.600;2024-03-07T05:04:00;18.25;;;9.65;;
51836;SDS011;38941;53.254;6.600;2024-03-07T05:06:01;15.82;;;9.00;;
51836;SDS011;38941;53.254;6.600;2024-03-07T05:08:02;17.98;;;9.60;;
51836;SDS011;38941;53.254;6.600;2024-03-07T05:10:06;17.73;;;9.40;;
51836;SDS011;38941;53.254;6.600;2024-03-07T05:12:08;18.75;;;9.52;;
51836;SDS011;38941;53.254;6.600;2024-03-07T05:14:09;19.98;;;10.63;;
51836;SDS011;38941;53.254;6.600;2024-03-07T05:16:10;20.45;;;10.07;;
51836;SDS011;38941;53.254;6.600;2024-03-07T05:18:15;18.40;;;9.80;;
51836;SDS011;38941;53.254;6.600;2024-03-07T05:20:16;16.95;;;9.45;;
51836;SDS011;38941;53.254;6.600;2024-03-07T05:22:18;19.98;;;10.57;;
51836;SDS011;38941;53.254;6.600;2024-03-07T05:24:22;21.45;;;10.30;;
51836;SDS011;38941;53.254;6.600;2024-03-07T05:26:24;19.85;;;10.00;;
51836;SDS011;38941;53.254;6.600;2024-03-07T05:28:27;17.70;;;10.10;;
51836;SDS011;38941;53.254;6.600;2024-03-07T05:30:28;18.90;;;11.00;;
51836;SDS011;38941;53.254;6.600;2024-03-07T05:32:32;22.17;;;11.95;;
51836;SDS011;38941;53.254;6.600;2024-03-07T05:34:34;23.25;;;11.00;;
51836;SDS011;38941;53.254;6.600;2024-03-07T05:36:41;24.05;;;12.25;;
51836;SDS011;38941;53.254;6.600;2024-03-07T05:38:47;22.35;;;11.38;;
51836;SDS011;38941;53.254;6.600;2024-03-07T05:40:48;26.05;;;11.93;;
51836;SDS011;38941;53.254;6.600;2024-03-07T05:42:49;22.48;;;12.55;;
51836;SDS011;38941;53.254;6.600;2024-03-07T05:44:50;26.52;;;12.48;;
51836;SDS011;38941;53.254;6.600;2024-03-07T05:46:51;24.45;;;13.18;;
51836;SDS011;38941;53.254;6.600;2024-03-07T05:48:51;25.52;;;13.30;;
51836;SDS011;38941;53.254;6.600;2024-03-07T05:50:56;23.92;;;12.48;;
51836;SDS011;38941;53.254;6.600;2024-03-07T05:52:57;26.52;;;13.00;;
51836;SDS011;38941;53.254;6.600;2024-03-07T05:55:00;25.65;;;12.75;;
51836;SDS011;38941;53.254;6.600;2024-03-07T05:57:01;28.20;;;12.77;;
51836;SDS011;38941;53.254;6.600;2024-03-07T05:59:07;29.88;;;14.02;;
51836;SDS011;38941;53.254;6.600;2024-03-07T06:01:15;26.88;;;12.80;;
51836;SDS011;38941;53.254;6.600;2024-03-07T06:03:17;24.95;;;12.73;;
51836;SDS011;38941;53.254;6.600;2024-03-07T06:05:20;28.67;;;13.27;;
51836;SDS011;38941;53.254;6.600;2024-03-07T06:07:20;26.38;;;13.30;;
51836;SDS011;38941;53.254;6.600;2024-03-07T06:09:21;28.30;;;13.95;;
51836;SDS011;38941;53.254;6.600;2024-03-07T06:11:24;29.25;;;14.48;;
51836;SDS011;38941;53.254;6.600;2024-03-07T06:13:39;30.77;;;15.45;;
51836;SDS011;38941;53.254;6.600;2024-03-07T06:18:05;35.85;;;16.75;;
51836;SDS011;38941;53.254;6.600;2024-03-07T06:20:09;37.83;;;17.08;;
51836;SDS011;38941;53.254;6.600;2024-03-07T06:24:43;43.42;;;18.70;;
51836;SDS011;38941;53.254;6.600;2024-03-07T06:26:44;39.38;;;17.05;;
51836;SDS011;38941;53.254;6.600;2024-03-07T06:28:47;41.15;;;18.77;;
51836;SDS011;38941;53.254;6.600;2024-03-07T06:30:51;49.47;;;17.40;;
51836;SDS011;38941;53.254;6.600;2024-03-07T06:32:51;42.15;;;19.33;;
51836;SDS011;38941;53.254;6.600;2024-03-07T06:34:52;50.25;;;19.42;;
51836;SDS011;38941;53.254;6.600;2024-03-07T06:36:53;54.38;;;18.27;;
51836;SDS011;38941;53.254;6.600;2024-03-07T06:38:56;60.63;;;19.60;;
51836;SDS011;38941;53.254;6.600;2024-03-07T06:41:00;70.20;;;18.13;;
51836;SDS011;38941;53.254;6.600;2024-03-07T06:43:01;48.65;;;17.98;;
51836;SDS011;38941;53.254;6.600;2024-03-07T06:45:12;58.92;;;19.50;;
51836;SDS011;38941;53.254;6.600;2024-03-07T06:47:16;44.03;;;20.13;;
51836;SDS011;38941;53.254;6.600;2024-03-07T06:49:19;49.05;;;18.77;;
51836;SDS011;38941;53.254;6.600;2024-03-07T06:51:26;48.00;;;19.63;;
51836;SDS011;38941;53.254;6.600;2024-03-07T06:53:29;62.20;;;20.92;;
51836;SDS011;38941;53.254;6.600;2024-03-07T06:55:30;49.45;;;19.67;;
51836;SDS011;38941;53.254;6.600;2024-03-07T06:57:34;49.78;;;20.05;;
51836;SDS011;38941;53.254;6.600;2024-03-07T06:59:36;49.55;;;20.02;;
51836;SDS011;38941;53.254;6.600;2024-03-07T07:01:37;61.25;;;21.15;;
51836;SDS011;38941;53.254;6.600;2024-03-07T07:03:44;49.47;;;19.23;;
51836;SDS011;38941;53.254;6.600;2024-03-07T07:05:44;49.13;;;19.65;;
51836;SDS011;38941;53.254;6.600;2024-03-07T07:07:47;46.17;;;20.90;;
51836;SDS011;38941;53.254;6.600;2024-03-07T07:09:48;56.03;;;21.10;;
51836;SDS011;38941;53.254;6.600;2024-03-07T07:11:52;54.75;;;20.10;;
51836;SDS011;38941;53.254;6.600;2024-03-07T07:13:53;48.42;;;20.52;;
51836;SDS011;38941;53.254;6.600;2024-03-07T07:15:54;63.47;;;20.17;;
51836;SDS011;38941;53.254;6.600;2024-03-07T07:17:56;51.58;;;21.70;;
51836;SDS011;38941;53.254;6.600;2024-03-07T07:19:59;52.83;;;20.15;;
51836;SDS011;38941;53.254;6.600;2024-03-07T07:22:02;51.70;;;18.05;;
51836;SDS011;38941;53.254;6.600;2024-03-07T07:24:06;51.75;;;20.25;;
51836;SDS011;38941;53.254;6.600;2024-03-07T07:26:09;56.72;;;19.90;;
51836;SDS011;38941;53.254;6.600;2024-03-07T07:28:10;94.95;;;19.23;;
51836;SDS011;38941;53.254;6.600;2024-03-07T07:30:13;62.88;;;18.83;;
51836;SDS011;38941;53.254;6.600;2024-03-07T07:32:17;49.80;;;18.38;;
51836;SDS011;38941;53.254;6.600;2024-03-07T07:34:22;56.45;;;18.00;;
51836;SDS011;38941;53.254;6.600;2024-03-07T07:36:24;81.00;;;18.75;;
51836;SDS011;38941;53.254;6.600;2024-03-07T07:38:24;57.03;;;16.95;;
51836;SDS011;38941;53.254;6.600;2024-03-07T07:40:29;56.10;;;19.35;;
51836;SDS011;38941;53.254;6.600;2024-03-07T07:42:32;67.63;;;19.10;;
51836;SDS011;38941;53.254;6.600;2024-03-07T07:44:33;67.00;;;18.60;;
51836;SDS011;38941;53.254;6.600;2024-03-07T07:46:33;56.63;;;19.90;;
51836;SDS011;38941;53.254;6.600;2024-03-07T07:48:34;44.08;;;17.35;;
51836;SDS011;38941;53.254;6.600;2024-03-07T07:50:35;48.85;;;17.35;;
51836;SDS011;38941;53.254;6.600;2024-03-07T07:52:36;50.97;;;18.75;;
51836;SDS011;38941;53.254;6.600;2024-03-07T07:56:48;49.28;;;20.02;;
51836;SDS011;38941;53.254;6.600;2024-03-07T07:58:49;69.03;;;21.67;;
51836;SDS011;38941;53.254;6.600;2024-03-07T08:00:55;64.90;;;21.02;;
51836;SDS011;38941;53.254;6.600;2024-03-07T08:03:03;65.82;;;23.38;;
51836;SDS011;38941;53.254;6.600;2024-03-07T08:05:06;64.28;;;21.80;;
51836;SDS011;38941;53.254;6.600;2024-03-07T08:07:07;69.28;;;24.50;;
51836;SDS011;38941;53.254;6.600;2024-03-07T08:09:07;70.80;;;22.80;;
51836;SDS011;38941;53.254;6.600;2024-03-07T08:11:10;65.60;;;21.10;;
51836;SDS011;38941;53.254;6.600;2024-03-07T08:13:14;60.75;;;20.27;;
51836;SDS011;38941;53.254;6.600;2024-03-07T08:15:17;70.47;;;19.38;;
51836;SDS011;38941;53.254;6.600;2024-03-07T08:17:18;56.92;;;18.55;;
51836;SDS011;38941;53.254;6.600;2024-03-07T08:19:20;47.65;;;18.38;;
51836;SDS011;38941;53.254;6.600;2024-03-07T08:21:21;56.35;;;19.08;;
51836;SDS011;38941;53.254;6.600;2024-03-07T08:23:23;53.00;;;16.48;;
51836;SDS011;38941;53.254;6.600;2024-03-07T08:25:27;46.72;;;16.67;;
51836;SDS011;38941;53.254;6.600;2024-03-07T08:27:30;40.88;;;16.48;;
51836;SDS011;38941;53.254;6.600;2024-03-07T08:29:32;55.40;;;17.33;;
51836;SDS011;38941;53.254;6.600;2024-03-07T08:31:33;36.67;;;16.38;;
51836;SDS011;38941;53.254;6.600;2024-03-07T08:33:35;45.75;;;15.95;;
51836;SDS011;38941;53.254;6.600;2024-03-07T08:35:37;49.25;;;16.38;;
51836;SDS011;38941;53.254;6.600;2024-03-07T08:37:38;44.83;;;16.25;;
51836;SDS011;38941;53.254;6.600;2024-03-07T08:39:42;34.22;;;14.55;;
51836;SDS011;38941;53.254;6.600;2024-03-07T08:41:43;36.85;;;16.13;;
51836;SDS011;38941;53.254;6.600;2024-03-07T08:43:47;35.75;;;15.00;;
51836;SDS011;38941;53.254;6.600;2024-03-07T08:45:50;36.83;;;14.70;;
51836;SDS011;38941;53.254;6.600;2024-03-07T08:47:53;36.80;;;15.43;;
51836;SDS011;38941;53.254;6.600;2024-03-07T08:49:55;35.15;;;14.77;;
51836;SDS011;38941;53.254;6.600;2024-03-07T08:51:55;35.40;;;14.55;;
51836;SDS011;38941;53.254;6.600;2024-03-07T08:53:57;36.65;;;13.95;;
51836;SDS011;38941;53.254;6.600;2024-03-07T08:56:00;36.40;;;15.02;;
51836;SDS011;38941;53.254;6.600;2024-03-07T08:58:02;37.17;;;15.00;;
51836;SDS011;38941;53.254;6.600;2024-03-07T09:00:03;34.22;;;15.13;;
51836;SDS011;38941;53.254;6.600;2024-03-07T09:02:24;38.08;;;15.18;;
51836;SDS011;38941;53.254;6.600;2024-03-07T09:04:27;34.55;;;13.95;;
51836;SDS011;38941;53.254;6.600;2024-03-07T09:06:32;36.10;;;14.23;;
51836;SDS011;38941;53.254;6.600;2024-03-07T09:08:32;36.92;;;16.25;;
51836;SDS011;38941;53.254;6.600;2024-03-07T09:10:34;41.47;;;15.88;;
51836;SDS011;38941;53.254;6.600;2024-03-07T09:12:35;38.53;;;14.75;;
51836;SDS011;38941;53.254;6.600;2024-03-07T09:14:38;41.17;;;16.17;;
51836;SDS011;38941;53.254;6.600;2024-03-07T09:16:42;36.70;;;15.18;;
51836;SDS011;38941;53.254;6.600;2024-03-07T09:18:43;39.08;;;15.70;;
51836;SDS011;38941;53.254;6.600;2024-03-07T09:20:44;37.80;;;14.90;;
51836;SDS011;38941;53.254;6.600;2024-03-07T09:22:45;43.53;;;16.40;;
51836;SDS011;38941;53.254;6.600;2024-03-07T09:24:48;38.33;;;15.57;;
51836;SDS011;38941;53.254;6.600;2024-03-07T09:26:50;36.78;;;14.63;;
51836;SDS011;38941;53.254;6.600;2024-03-07T09:28:52;33.65;;;14.05;;
51836;SDS011;38941;53.254;6.600;2024-03-07T09:30:55;37.28;;;16.73;;
51836;SDS011;38941;53.254;6.600;2024-03-07T09:32:57;34.90;;;16.70;;
51836;SDS011;38941;53.254;6.600;2024-03-07T09:34:58;39.55;;;16.48;;
51836;SDS011;38941;53.254;6.600;2024-03-07T09:37:00;35.03;;;14.68;;
51836;SDS011;38941;53.254;6.600;2024-03-07T09:39:03;37.20;;;16.05;;
51836;SDS011;38941;53.254;6.600;2024-03-07T09:41:07;34.80;;;14.70;;
51836;SDS011;38941;53.254;6.600;2024-03-07T09:43:11;37.67;;;13.50;;
51836;SDS011;38941;53.254;6.600;2024-03-07T09:45:17;31.77;;;14.73;;
51836;SDS011;38941;53.254;6.600;2024-03-07T09:47:19;33.45;;;14.02;;
51836;SDS011;38941;53.254;6.600;2024-03-07T09:49:22;31.88;;;12.43;;
51836;SDS011;38941;53.254;6.600;2024-03-07T09:51:25;29.88;;;12.88;;
51836;SDS011;38941;53.254;6.600;2024-03-07T09:53:29;33.10;;;13.77;;
51836;SDS011;38941;53.254;6.600;2024-03-07T09:55:30;29.88;;;12.82;;
51836;SDS011;38941;53.254;6.600;2024-03-07T09:57:31;30.48;;;12.07;;
51836;SDS011;38941;53.254;6.600;2024-03-07T09:59:36;30.00;;;13.23;;
51836;SDS011;38941;53.254;6.600;2024-03-07T10:01:41;31.55;;;12.82;;
51836;SDS011;38941;53.254;6.600;2024-03-07T10:03:48;28.38;;;12.40;;
51836;SDS011;38941;53.254;6.600;2024-03-07T10:05:53;29.48;;;12.38;;
51836;SDS011;38941;53.254;6.600;2024-03-07T10:07:55;28.00;;;12.05;;
51836;SDS011;38941;53.254;6.600;2024-03-07T10:09:55;27.00;;;12.05;;
51836;SDS011;38941;53.254;6.600;2024-03-07T10:12:05;30.38;;;12.35;;
51836;SDS011;38941;53.254;6.600;2024-03-07T10:14:09;30.15;;;12.63;;
51836;SDS011;38941;53.254;6.600;2024-03-07T10:16:10;29.23;;;12.65;;
51836;SDS011;38941;53.254;6.600;2024-03-07T10:18:11;28.38;;;12.43;;
51836;SDS011;38941;53.254;6.600;2024-03-07T10:20:14;30.73;;;13.00;;
51836;SDS011;38941;53.254;6.600;2024-03-07T10:22:22;29.80;;;12.03;;
51836;SDS011;38941;53.254;6.600;2024-03-07T10:24:24;27.58;;;11.85;;
51836;SDS011;38941;53.254;6.600;2024-03-07T10:26:25;31.50;;;12.75;;
51836;SDS011;38941;53.254;6.600;2024-03-07T10:28:30;32.63;;;12.75;;
51836;SDS011;38941;53.254;6.600;2024-03-07T10:30:38;27.83;;;11.68;;
51836;SDS011;38941;53.254;6.600;2024-03-07T10:32:41;28.83;;;11.95;;
51836;SDS011;38941;53.254;6.600;2024-03-07T10:34:41;26.27;;;11.68;;
51836;SDS011;38941;53.254;6.600;2024-03-07T10:36:47;27.52;;;12.95;;
51836;SDS011;38941;53.254;6.600;2024-03-07T10:38:48;30.42;;;12.40;;
51836;SDS011;38941;53.254;6.600;2024-03-07T10:40:52;23.95;;;10.93;;
51836;SDS011;38941;53.254;6.600;2024-03-07T10:42:56;30.52;;;13.50;;
51836;SDS011;38941;53.254;6.600;2024-03-07T10:44:59;30.45;;;12.70;;
51836;SDS011;38941;53.254;6.600;2024-03-07T10:47:06;30.65;;;12.70;;
51836;SDS011;38941;53.254;6.600;2024-03-07T10:49:10;28.40;;;13.07;;
51836;SDS011;38941;53.254;6.600;2024-03-07T10:51:20;28.98;;;12.57;;
51836;SDS011;38941;53.254;6.600;2024-03-07T10:55:49;29.88;;;12.35;;
51836;SDS011;38941;53.254;6.600;2024-03-07T10:57:55;32.05;;;12.45;;
51836;SDS011;38941;53.254;6.600;2024-03-07T11:00:02;29.02;;;12.43;;
51836;SDS011;38941;53.254;6.600;2024-03-07T11:04:47;32.63;;;13.50;;
51836;SDS011;38941;53.254;6.600;2024-03-07T11:06:52;35.42;;;13.00;;
51836;SDS011;38941;53.254;6.600;2024-03-07T11:08:54;33.30;;;13.25;;
51836;SDS011;38941;53.254;6.600;2024-03-07T11:10:56;36.92;;;12.90;;
51836;SDS011;38941;53.254;6.600;2024-03-07T11:12:58;33.20;;;14.38;;
51836;SDS011;38941;53.254;6.600;2024-03-07T11:15:00;30.17;;;13.32;;
51836;SDS011;38941;53.254;6.600;2024-03-07T11:17:08;27.95;;;11.88;;
51836;SDS011;38941;53.254;6.600;2024-03-07T11:19:17;33.15;;;12.27;;
51836;SDS011;38941;53.254;6.600;2024-03-07T11:23:44;30.38;;;12.68;;
51836;SDS011;38941;53.254;6.600;2024-03-07T11:25:45;31.70;;;11.65;;
51836;SDS011;38941;53.254;6.600;2024-03-07T11:27:52;28.40;;;12.60;;
51836;SDS011;38941;53.254;6.600;2024-03-07T11:29:59;33.55;;;13.70;;
51836;SDS011;38941;53.254;6.600;2024-03-07T11:32:07;28.33;;;11.10;;
51836;SDS011;38941;53.254;6.600;2024-03-07T11:34:16;28.50;;;11.98;;
51836;SDS011;38941;53.254;6.600;2024-03-07T11:36:41;33.35;;;13.27;;
51836;SDS011;38941;53.254;6.600;2024-03-07T11:38:45;31.00;;;12.93;;
51836;SDS011;38941;53.254;6.600;2024-03-07T11:40:50;34.42;;;12.60;;
51836;SDS011;38941;53.254;6.600;2024-03-07T11:42:52;26.08;;;11.40;;
51836;SDS011;38941;53.254;6.600;2024-03-07T11:44:55;30.25;;;12.45;;
51836;SDS011;38941;53.254;6.600;2024-03-07T11:46:56;28.83;;;12.07;;
51836;SDS011;38941;53.254;6.600;2024-03-07T11:48:59;29.48;;;12.18;;
51836;SDS011;38941;53.254;6.600;2024-03-07T11:51:00;26.27;;;10.90;;
51836;SDS011;38941;53.254;6.600;2024-03-07T11:53:03;25.65;;;11.77;;
51836;SDS011;38941;53.254;6.600;2024-03-07T11:55:08;24.40;;;11.90;;
51836;SDS011;38941;53.254;6.600;2024-03-07T11:57:09;29.83;;;11.65;;
51836;SDS011;38941;53.254;6.600;2024-03-07T11:59:14;29.85;;;11.40;;
51836;SDS011;38941;53.254;6.600;2024-03-07T12:01:15;25.17;;;11.38;;
51836;SDS011;38941;53.254;6.600;2024-03-07T12:03:17;27.48;;;11.85;;
51836;SDS011;38941;53.254;6.600;2024-03-07T12:05:22;26.27;;;11.43;;
51836;SDS011;38941;53.254;6.600;2024-03-07T12:07:24;26.45;;;11.23;;
51836;SDS011;38941;53.254;6.600;2024-03-07T12:09:25;25.17;;;11.23;;
51836;SDS011;38941;53.254;6.600;2024-03-07T12:11:26;28.95;;;13.35;;
51836;SDS011;38941;53.254;6.600;2024-03-07T12:13:28;28.73;;;11.77;;
51836;SDS011;38941;53.254;6.600;2024-03-07T12:15:30;26.10;;;10.85;;
51836;SDS011;38941;53.254;6.600;2024-03-07T12:17:32;24.60;;;11.77;;
51836;SDS011;38941;53.254;6.600;2024-03-07T12:19:33;23.77;;;12.23;;